createdAt,value
2022-10-18T00:02:23.078Z,50.22
2022-10-18T00:05:29.045Z,52.50
2022-10-18T00:08:34.607Z,52.63
2022-10-18T00:11:40.705Z,54.00
2022-10-18T00:14:51.162Z,48.92
2022-10-18T00:17:56.519Z,49.30
2022-10-18T00:21:07.863Z,51.10
2022-10-18T00:24:13.227Z,53.47
2022-10-18T00:27:18.587Z,51.63
2022-10-18T00:30:26.136Z,52.17
2022-10-18T00:33:31.858Z,49.38
2022-10-18T00:36:37.558Z,50.05
2022-10-18T00:39:44.104Z,49.53
2022-10-18T00:42:49.676Z,50.92
2022-10-18T00:45:55.152Z,52.97
2022-10-18T00:49:03.995Z,49.55
2022-10-18T00:52:15.820Z,47.95
2022-10-18T00:55:21.923Z,45.90
2022-10-18T00:58:27.490Z,40.90
2022-10-18T01:01:32.783Z,38.97
2022-10-18T01:04:38.150Z,39.00
2022-10-18T01:07:55.290Z,41.38
2022-10-18T01:11:18.520Z,41.75
2022-10-18T01:14:50.019Z,42.28
2022-10-18T01:18:32.312Z,41.92
2022-10-18T01:22:02.841Z,43.95
2022-10-18T01:25:32.843Z,43.17
2022-10-18T01:29:25.981Z,43.10
2022-10-18T01:32:37.919Z,40.63
2022-10-18T01:36:22.970Z,41.92
2022-10-18T01:39:35.905Z,43.08
2022-10-18T01:42:59.911Z,39.95
2022-10-18T01:46:06.021Z,45.50
2022-10-18T01:49:29.272Z,43.08
2022-10-18T01:52:34.655Z,41.80
2022-10-18T01:56:11.026Z,40.50
2022-10-18T01:59:54.526Z,40.58
2022-10-18T02:03:18.129Z,42.45
2022-10-18T02:06:32.448Z,39.20
2022-10-18T02:09:46.932Z,37.35
2022-10-18T02:12:55.370Z,36.58
2022-10-18T02:16:08.423Z,38.83
2022-10-18T02:19:20.883Z,37.97
2022-10-18T02:22:31.504Z,37.47
2022-10-18T02:25:38.687Z,35.22
2022-10-18T02:28:45.948Z,36.20
2022-10-18T02:32:02.759Z,36.25
2022-10-18T02:35:24.958Z,34.17
2022-10-18T02:38:32.903Z,36.15
2022-10-18T02:41:38.976Z,34.03
2022-10-18T02:44:44.293Z,34.95
2022-10-18T02:47:50.125Z,34.83
2022-10-18T02:50:55.562Z,35.38
2022-10-18T02:54:01.190Z,33.15
2022-10-18T02:57:07.073Z,29.85
2022-10-18T03:00:13.018Z,31.33
2022-10-18T03:03:18.680Z,31.80
2022-10-18T03:06:24.019Z,30.02
2022-10-18T03:09:29.201Z,29.27
2022-10-18T03:12:34.777Z,30.17
2022-10-18T03:15:40.600Z,31.45
2022-10-18T03:18:46.213Z,30.88
2022-10-18T03:21:51.715Z,29.50
2022-10-18T03:24:56.835Z,28.75
2022-10-18T03:28:02.141Z,27.80
2022-10-18T03:31:07.920Z,28.15
2022-10-18T03:34:13.336Z,29.70
2022-10-18T03:37:18.802Z,30.00
2022-10-18T03:40:24.594Z,29.70
2022-10-18T03:43:30.473Z,31.48
2022-10-18T03:46:35.560Z,31.20
2022-10-18T03:49:40.713Z,32.15
2022-10-18T03:52:46.187Z,31.23
2022-10-18T03:55:55.887Z,32.67
2022-10-18T03:59:01.335Z,31.00
2022-10-18T04:02:07.109Z,30.65
2022-10-18T04:05:14.361Z,30.55
2022-10-18T04:08:20.409Z,29.65
2022-10-18T04:11:25.828Z,32.22
2022-10-18T04:14:31.394Z,35.20
2022-10-18T04:17:37.354Z,34.65
2022-10-18T04:20:42.702Z,35.15
2022-10-18T04:23:49.728Z,36.33
2022-10-18T04:26:55.033Z,34.92
2022-10-18T04:30:00.434Z,34.42
2022-10-18T04:33:06.028Z,34.25
2022-10-18T04:36:11.605Z,34.08
2022-10-18T04:39:18.182Z,33.70
2022-10-18T04:42:23.849Z,37.92
2022-10-18T04:45:29.322Z,33.33
2022-10-18T04:48:34.975Z,34.08
2022-10-18T04:51:40.847Z,32.83
2022-10-18T04:54:46.297Z,31.80
2022-10-18T04:57:53.594Z,31.80
2022-10-18T05:00:59.142Z,31.38
2022-10-18T05:04:05.273Z,35.95
2022-10-18T05:07:11.183Z,35.13
2022-10-18T05:10:16.848Z,42.45
2022-10-18T05:13:22.494Z,38.92
2022-10-18T05:16:28.947Z,38.08
2022-10-18T05:19:34.395Z,38.13
2022-10-18T05:22:39.780Z,38.58
2022-10-18T05:25:44.801Z,39.25
2022-10-18T05:28:50.981Z,38.53
2022-10-18T05:31:57.251Z,34.90
2022-10-18T05:35:03.066Z,34.55
2022-10-18T05:38:08.793Z,33.95
2022-10-18T05:41:14.886Z,36.72
2022-10-18T05:44:20.444Z,34.40
2022-10-18T05:47:25.933Z,37.78
2022-10-18T05:50:35.425Z,38.83
2022-10-18T05:53:43.460Z,37.03
2022-10-18T05:56:48.702Z,37.97
2022-10-18T05:59:54.028Z,39.30
2022-10-18T06:03:00.516Z,38.30
2022-10-18T06:06:11.154Z,37.50
2022-10-18T06:09:16.130Z,37.53
2022-10-18T06:12:21.385Z,37.55
2022-10-18T06:15:26.747Z,39.42
2022-10-18T06:18:32.276Z,39.50
2022-10-18T06:21:37.905Z,39.05
2022-10-18T06:24:43.205Z,41.20
2022-10-18T06:27:48.906Z,41.72
2022-10-18T06:30:54.721Z,39.65
2022-10-18T06:34:00.276Z,45.90
2022-10-18T06:37:05.772Z,39.47
2022-10-18T06:40:11.774Z,38.58
2022-10-18T06:43:20.955Z,37.15
2022-10-18T06:46:27.486Z,36.75
2022-10-18T06:49:33.352Z,37.58
2022-10-18T06:52:39.047Z,37.67
2022-10-18T06:55:44.611Z,37.90
2022-10-18T06:58:50.392Z,39.45
2022-10-18T07:01:56.374Z,37.28
2022-10-18T07:05:01.414Z,39.83
2022-10-18T07:08:07.202Z,43.28
2022-10-18T07:11:20.552Z,46.60
2022-10-18T07:14:29.059Z,44.08
2022-10-18T07:17:35.454Z,43.08
2022-10-18T07:20:41.213Z,47.97
2022-10-18T07:23:47.373Z,48.42
2022-10-18T07:26:52.724Z,50.10
2022-10-18T07:29:58.624Z,54.10
2022-10-18T07:33:04.010Z,51.70
2022-10-18T07:36:11.092Z,49.67
2022-10-18T07:39:16.929Z,53.00
2022-10-18T07:42:22.313Z,50.92
2022-10-18T07:45:27.894Z,49.58
2022-10-18T07:48:33.319Z,50.05
2022-10-18T07:51:39.387Z,51.90
2022-10-18T07:54:44.803Z,48.67
2022-10-18T07:57:50.277Z,49.35
2022-10-18T08:00:55.959Z,51.53
2022-10-18T08:04:06.301Z,51.35
2022-10-18T08:07:12.990Z,50.38
2022-10-18T08:10:18.877Z,47.13
2022-10-18T08:13:24.909Z,50.85
2022-10-18T08:19:41.935Z,44.35
2022-10-18T08:26:11.128Z,43.22
2022-10-18T08:29:23.885Z,41.40
2022-10-18T08:32:31.715Z,42.03
2022-10-18T08:35:38.049Z,41.03
2022-10-18T08:38:44.251Z,38.20
2022-10-18T08:41:55.313Z,38.92
2022-10-18T08:45:08.244Z,39.65
2022-10-18T08:48:33.251Z,34.50
2022-10-18T08:51:49.917Z,35.67
2022-10-18T08:55:22.324Z,37.40
2022-10-18T08:58:32.136Z,36.55
2022-10-18T09:02:02.216Z,35.45
2022-10-18T09:05:31.709Z,35.55
2022-10-18T09:09:15.664Z,32.95
2022-10-18T09:12:27.180Z,30.25
2022-10-18T09:16:13.967Z,28.85
2022-10-18T09:19:43.909Z,29.88
2022-10-18T09:23:13.512Z,26.23
2022-10-18T09:26:21.883Z,30.60
2022-10-18T09:29:38.298Z,27.48
2022-10-18T09:33:02.247Z,29.40
2022-10-18T09:36:17.950Z,26.58
2022-10-18T09:39:38.120Z,29.58
2022-10-18T09:43:02.144Z,25.47
2022-10-18T09:46:09.078Z,27.27
2022-10-18T09:49:20.496Z,27.92
2022-10-18T09:52:45.686Z,27.63
2022-10-18T09:55:57.873Z,21.77
2022-10-18T09:59:04.462Z,22.50
2022-10-18T10:02:16.229Z,20.83
2022-10-18T10:05:21.653Z,20.50
2022-10-18T10:08:36.511Z,19.10
2022-10-18T10:11:52.593Z,18.90
2022-10-18T10:15:23.507Z,20.55
2022-10-18T10:18:36.347Z,20.25
2022-10-18T10:21:41.732Z,21.10
2022-10-18T10:24:51.962Z,20.95
2022-10-18T10:28:16.979Z,23.45
2022-10-18T10:31:25.745Z,21.77
2022-10-18T10:34:32.260Z,25.02
2022-10-18T10:37:38.397Z,25.38
2022-10-18T10:40:53.898Z,24.73
2022-10-18T10:44:04.156Z,23.10
2022-10-18T10:47:09.610Z,23.13
2022-10-18T10:50:27.380Z,24.95
2022-10-18T10:53:39.118Z,27.27
2022-10-18T10:57:05.324Z,27.48
2022-10-18T11:00:36.765Z,27.23
2022-10-18T11:03:51.167Z,30.63
2022-10-18T11:07:02.678Z,28.73
2022-10-18T11:10:15.870Z,31.17
2022-10-18T11:13:50.012Z,33.67
2022-10-18T11:17:30.281Z,33.78
2022-10-18T11:20:40.699Z,33.78
2022-10-18T11:23:46.433Z,33.00
2022-10-18T11:27:16.971Z,33.95
2022-10-18T11:30:43.100Z,33.90
2022-10-18T11:34:08.133Z,35.97
2022-10-18T11:37:37.545Z,33.47
2022-10-18T11:41:22.962Z,37.45
2022-10-18T11:44:37.497Z,36.83
2022-10-18T11:47:57.356Z,37.20
2022-10-18T11:51:55.949Z,38.53
2022-10-18T11:55:15.541Z,37.92
2022-10-18T11:58:45.085Z,39.70
2022-10-18T12:01:59.249Z,38.40
2022-10-18T12:05:24.294Z,40.60
2022-10-18T12:08:40.534Z,39.72
2022-10-18T12:12:14.591Z,41.33
2022-10-18T12:15:28.905Z,38.08
2022-10-18T12:18:39.798Z,37.05
2022-10-18T12:21:46.157Z,36.30
2022-10-18T12:24:52.126Z,37.20
2022-10-18T12:28:16.733Z,36.58
2022-10-18T12:31:34.352Z,35.03
2022-10-18T12:34:52.025Z,34.80
2022-10-18T12:38:18.222Z,38.25
2022-10-18T12:41:28.695Z,40.58
2022-10-18T12:44:36.398Z,38.90
2022-10-18T12:47:42.021Z,36.45
2022-10-18T12:51:13.836Z,37.42
2022-10-18T12:54:25.703Z,37.70
2022-10-18T12:57:52.971Z,38.55
2022-10-18T13:01:04.443Z,35.10
2022-10-18T13:04:33.913Z,34.85
2022-10-18T13:07:43.439Z,33.70
2022-10-18T13:11:12.474Z,35.10
2022-10-18T13:14:20.800Z,35.55
2022-10-18T13:18:25.332Z,31.42
2022-10-18T13:21:49.087Z,35.05
2022-10-18T13:25:25.647Z,34.10
2022-10-18T13:28:59.430Z,31.92
2022-10-18T13:32:34.538Z,31.23
2022-10-18T13:36:04.483Z,33.17
2022-10-18T13:39:37.087Z,31.40
2022-10-18T13:42:42.866Z,30.90
2022-10-18T13:46:13.496Z,30.92
2022-10-18T13:49:59.212Z,30.88
2022-10-18T13:53:53.626Z,29.95
2022-10-18T13:57:26.825Z,29.27
2022-10-18T14:01:11.485Z,29.23
2022-10-18T14:04:31.900Z,28.95
2022-10-18T14:08:00.758Z,29.05
2022-10-18T14:11:17.487Z,27.95
2022-10-18T14:14:46.425Z,28.33
2022-10-18T14:17:53.409Z,22.92
2022-10-18T14:21:21.935Z,25.80
2022-10-18T14:24:30.145Z,25.75
2022-10-18T14:28:11.409Z,29.25
2022-10-18T14:31:20.860Z,26.33
2022-10-18T14:34:44.858Z,28.60
2022-10-18T14:37:53.754Z,28.50
2022-10-18T14:41:46.730Z,29.50
2022-10-18T14:44:54.318Z,27.90
2022-10-18T14:48:24.079Z,28.13
2022-10-18T14:51:34.423Z,25.77
2022-10-18T14:54:59.059Z,28.13
2022-10-18T14:58:15.439Z,24.90
2022-10-18T15:01:39.670Z,26.25
2022-10-18T15:04:47.114Z,25.63
2022-10-18T15:08:10.564Z,27.52
2022-10-18T15:11:35.394Z,25.58
2022-10-18T15:14:43.155Z,25.35
2022-10-18T15:18:07.529Z,27.80
2022-10-18T15:21:24.426Z,27.60
2022-10-18T15:24:55.915Z,26.15
2022-10-18T15:28:02.320Z,26.08
2022-10-18T15:31:35.790Z,26.25
2022-10-18T15:34:41.412Z,25.83
2022-10-18T15:38:08.504Z,27.55
2022-10-18T15:41:49.308Z,27.73
2022-10-18T15:45:13.511Z,27.50
2022-10-18T15:48:30.870Z,26.35
2022-10-18T15:52:07.321Z,26.65
2022-10-18T15:55:30.889Z,26.27
2022-10-18T15:59:05.230Z,24.98
2022-10-18T16:02:14.550Z,25.50
2022-10-18T16:05:41.120Z,24.73
2022-10-18T16:08:52.578Z,24.95
2022-10-18T16:11:59.061Z,23.98
2022-10-18T16:15:05.002Z,27.75
2022-10-18T16:18:20.921Z,25.10
2022-10-18T16:21:35.385Z,24.80
2022-10-18T16:24:41.154Z,26.70
2022-10-18T16:27:46.378Z,26.65
2022-10-18T16:30:58.548Z,28.17
2022-10-18T16:34:05.401Z,27.08
2022-10-18T16:37:11.834Z,26.52
2022-10-18T16:40:26.474Z,25.50
2022-10-18T16:43:35.050Z,23.98
2022-10-18T16:46:41.480Z,25.60
2022-10-18T16:49:47.453Z,26.55
2022-10-18T16:52:52.912Z,24.95
2022-10-18T16:56:00.948Z,27.90
2022-10-18T16:59:07.002Z,26.38
2022-10-18T17:02:12.459Z,27.17
2022-10-18T17:05:19.308Z,28.55
2022-10-18T17:08:27.749Z,28.60
2022-10-18T17:11:33.341Z,28.13
2022-10-18T17:14:38.802Z,27.65
2022-10-18T17:17:44.416Z,28.85
2022-10-18T17:20:51.017Z,30.33
2022-10-18T17:24:06.413Z,30.05
2022-10-18T17:27:12.351Z,29.95
2022-10-18T17:30:18.302Z,30.38
2022-10-18T17:33:23.885Z,30.15
2022-10-18T17:36:32.924Z,26.70
2022-10-18T17:39:38.590Z,27.45
2022-10-18T17:42:44.026Z,28.65
2022-10-18T17:45:56.834Z,28.17
2022-10-18T17:49:02.910Z,29.77
2022-10-18T17:52:09.057Z,28.45
2022-10-18T17:55:16.283Z,28.13
2022-10-18T17:58:21.776Z,28.40
2022-10-18T18:01:27.514Z,28.90
2022-10-18T18:04:32.758Z,31.67
2022-10-18T18:07:38.378Z,27.65
2022-10-18T18:10:44.756Z,28.33
2022-10-18T18:13:50.613Z,28.10
2022-10-18T18:16:56.749Z,29.77
2022-10-18T18:20:02.846Z,29.42
2022-10-18T18:23:08.607Z,30.23
2022-10-18T18:26:15.741Z,31.25
2022-10-18T18:29:23.554Z,31.25
2022-10-18T18:32:28.815Z,32.88
2022-10-18T18:35:34.419Z,32.30
2022-10-18T18:38:42.951Z,32.63
2022-10-18T18:41:50.691Z,32.10
2022-10-18T18:44:55.908Z,29.38
2022-10-18T18:48:01.513Z,32.58
2022-10-18T18:51:11.844Z,32.75
2022-10-18T18:54:17.549Z,32.85
2022-10-18T18:57:22.845Z,34.08
2022-10-18T19:00:28.908Z,32.10
2022-10-18T19:03:34.754Z,31.40
2022-10-18T19:06:43.190Z,35.28
2022-10-18T19:09:51.095Z,34.35
2022-10-18T19:12:56.801Z,37.17
2022-10-18T19:16:25.632Z,34.97
2022-10-18T19:19:32.413Z,34.75
2022-10-18T19:22:38.979Z,36.35
2022-10-18T19:25:45.911Z,35.13
2022-10-18T19:28:51.757Z,37.50
2022-10-18T19:32:01.245Z,34.53
2022-10-18T19:35:08.077Z,36.53
2022-10-18T19:38:14.681Z,34.85
2022-10-18T19:41:21.603Z,35.55
2022-10-18T19:44:31.461Z,36.58
2022-10-18T19:47:39.678Z,41.83
2022-10-18T19:50:46.117Z,39.75
2022-10-18T19:53:55.483Z,39.35
2022-10-18T19:57:02.847Z,39.97
2022-10-18T20:00:11.338Z,39.17
2022-10-18T20:03:18.235Z,38.63
2022-10-18T20:06:26.084Z,39.45
2022-10-18T20:09:33.494Z,38.13
2022-10-18T20:12:40.116Z,38.55
2022-10-18T20:15:51.160Z,39.67
2022-10-18T20:18:59.714Z,38.58
2022-10-18T20:22:09.407Z,39.90
2022-10-18T20:25:16.222Z,38.92
2022-10-18T20:28:24.024Z,42.58
2022-10-18T20:31:39.417Z,40.83
2022-10-18T20:34:46.070Z,41.50
2022-10-18T20:37:52.396Z,40.15
2022-10-18T20:41:31.784Z,39.30
2022-10-18T20:44:41.256Z,41.35
2022-10-18T20:47:47.312Z,42.47
2022-10-18T20:50:53.116Z,39.50
2022-10-18T20:54:00.114Z,41.78
2022-10-18T20:57:06.233Z,42.42
2022-10-18T21:00:13.514Z,39.85
2022-10-18T21:03:19.165Z,40.10
2022-10-18T21:06:30.596Z,40.05
2022-10-18T21:12:41.515Z,37.33
2022-10-18T21:15:54.608Z,41.45
2022-10-18T21:19:08.965Z,40.85
2022-10-18T21:22:14.321Z,41.75
2022-10-18T21:25:20.101Z,40.78
2022-10-18T21:28:25.323Z,40.40
2022-10-18T21:31:36.539Z,39.78
2022-10-18T21:34:41.965Z,37.90
2022-10-18T21:37:47.523Z,40.30
2022-10-18T21:40:53.853Z,39.80
2022-10-18T21:43:59.852Z,38.38
2022-10-18T21:47:05.368Z,36.67
2022-10-18T21:50:11.020Z,40.65
2022-10-18T21:53:16.978Z,37.28
2022-10-18T21:56:33.447Z,36.83
2022-10-18T21:59:39.463Z,40.65
2022-10-18T22:02:44.836Z,37.95
2022-10-18T22:06:07.860Z,37.08
2022-10-18T22:09:13.506Z,38.63
2022-10-18T22:12:19.130Z,39.60
2022-10-18T22:15:24.499Z,39.50
2022-10-18T22:18:30.675Z,36.80
2022-10-18T22:21:36.115Z,39.17
2022-10-18T22:24:41.886Z,41.13
2022-10-18T22:27:47.612Z,38.75
2022-10-18T22:30:53.309Z,42.80
2022-10-18T22:34:03.537Z,41.53
2022-10-18T22:37:08.950Z,43.38
2022-10-18T22:40:14.481Z,36.92
2022-10-18T22:43:20.319Z,37.00
2022-10-18T22:46:26.528Z,36.63
2022-10-18T22:49:32.366Z,38.10
2022-10-18T22:52:37.708Z,41.55
2022-10-18T22:55:43.343Z,39.92
2022-10-18T22:58:49.380Z,35.97
2022-10-18T23:01:55.134Z,39.13
2022-10-18T23:05:00.645Z,37.60
2022-10-18T23:08:08.479Z,38.75
2022-10-18T23:11:14.593Z,38.40
2022-10-18T23:14:20.842Z,38.60
2022-10-18T23:17:26.380Z,40.03
2022-10-18T23:20:32.254Z,37.85
2022-10-18T23:23:39.974Z,41.13
2022-10-18T23:26:45.179Z,38.90
2022-10-18T23:29:50.672Z,39.85
2022-10-18T23:32:56.698Z,40.03
2022-10-18T23:36:02.258Z,38.70
2022-10-18T23:39:07.905Z,42.70
2022-10-18T23:42:13.683Z,46.20
2022-10-18T23:45:19.478Z,45.28
2022-10-18T23:48:25.467Z,44.42
2022-10-18T23:51:31.211Z,43.63
2022-10-18T23:54:36.869Z,41.95
2022-10-18T23:57:42.310Z,41.80
